sensor_id;sensor_type;location;lat;lon;timestamp;P1;durP1;ratioP1;P2;durP2;ratioP2
61709;SDS011;47633;51.494;5.386;2023-08-06T00:01:23;3.38;;;1.80;;
61709;SDS011;47633;51.494;5.386;2023-08-06T00:03:49;3.33;;;1.58;;
61709;SDS011;47633;51.494;5.386;2023-08-06T00:06:14;3.25;;;1.60;;
61709;SDS011;47633;51.494;5.386;2023-08-06T00:08:39;3.22;;;1.60;;
61709;SDS011;47633;51.494;5.386;2023-08-06T00:11:04;4.85;;;1.85;;
61709;SDS011;47633;51.494;5.386;2023-08-06T00:13:30;3.65;;;1.88;;
61709;SDS011;47633;51.494;5.386;2023-08-06T00:15:55;3.55;;;1.58;;
61709;SDS011;47633;51.494;5.386;2023-08-06T00:18:20;4.35;;;1.73;;
61709;SDS011;47633;51.494;5.386;2023-08-06T00:20:46;2.78;;;1.42;;
61709;SDS011;47633;51.494;5.386;2023-08-06T00:23:11;3.80;;;1.73;;
61709;SDS011;47633;51.494;5.386;2023-08-06T00:25:36;3.13;;;1.70;;
61709;SDS011;47633;51.494;5.386;2023-08-06T00:28:02;3.92;;;1.83;;
61709;SDS011;47633;51.494;5.386;2023-08-06T00:30:27;3.70;;;2.00;;
61709;SDS011;47633;51.494;5.386;2023-08-06T00:32:52;4.18;;;1.77;;
61709;SDS011;47633;51.494;5.386;2023-08-06T00:35:18;4.03;;;1.60;;
61709;SDS011;47633;51.494;5.386;2023-08-06T00:37:43;3.33;;;1.70;;
61709;SDS011;47633;51.494;5.386;2023-08-06T00:40:08;3.70;;;1.73;;
61709;SDS011;47633;51.494;5.386;2023-08-06T00:42:34;4.82;;;1.50;;
61709;SDS011;47633;51.494;5.386;2023-08-06T00:45:00;3.45;;;1.45;;
61709;SDS011;47633;51.494;5.386;2023-08-06T00:47:25;2.70;;;1.50;;
61709;SDS011;47633;51.494;5.386;2023-08-06T00:49:51;3.22;;;1.50;;
61709;SDS011;47633;51.494;5.386;2023-08-06T00:52:16;3.67;;;1.60;;
61709;SDS011;47633;51.494;5.386;2023-08-06T00:54:42;3.40;;;1.60;;
61709;SDS011;47633;51.494;5.386;2023-08-06T00:57:08;2.70;;;1.45;;
61709;SDS011;47633;51.494;5.386;2023-08-06T00:59:34;2.75;;;1.33;;
61709;SDS011;47633;51.494;5.386;2023-08-06T01:01:59;3.28;;;1.60;;
61709;SDS011;47633;51.494;5.386;2023-08-06T01:04:25;4.22;;;1.70;;
61709;SDS011;47633;51.494;5.386;2023-08-06T01:07:02;3.15;;;1.60;;
61709;SDS011;47633;51.494;5.386;2023-08-06T01:17:33;2.97;;;1.48;;
61709;SDS011;47633;51.494;5.386;2023-08-06T01:20:00;3.08;;;1.30;;
61709;SDS011;47633;51.494;5.386;2023-08-06T01:22:25;4.28;;;1.55;;
61709;SDS011;47633;51.494;5.386;2023-08-06T01:24:51;2.92;;;1.40;;
61709;SDS011;47633;51.494;5.386;2023-08-06T01:32:40;3.22;;;1.50;;
61709;SDS011;47633;51.494;5.386;2023-08-06T01:35:15;2.78;;;1.50;;
61709;SDS011;47633;51.494;5.386;2023-08-06T01:37:42;4.03;;;1.60;;
61709;SDS011;47633;51.494;5.386;2023-08-06T01:40:11;7.82;;;1.92;;
61709;SDS011;47633;51.494;5.386;2023-08-06T01:42:38;3.80;;;1.50;;
61709;SDS011;47633;51.494;5.386;2023-08-06T01:45:04;3.25;;;1.40;;
61709;SDS011;47633;51.494;5.386;2023-08-06T01:47:30;3.63;;;1.58;;
61709;SDS011;47633;51.494;5.386;2023-08-06T01:49:55;3.45;;;1.30;;
61709;SDS011;47633;51.494;5.386;2023-08-06T01:52:21;3.72;;;1.63;;
61709;SDS011;47633;51.494;5.386;2023-08-06T01:54:46;3.30;;;1.40;;
61709;SDS011;47633;51.494;5.386;2023-08-06T01:57:11;3.95;;;1.48;;
61709;SDS011;47633;51.494;5.386;2023-08-06T01:59:38;3.10;;;1.38;;
61709;SDS011;47633;51.494;5.386;2023-08-06T02:02:03;3.42;;;1.48;;
61709;SDS011;47633;51.494;5.386;2023-08-06T02:04:29;3.08;;;1.40;;
61709;SDS011;47633;51.494;5.386;2023-08-06T02:06:54;2.45;;;1.20;;
61709;SDS011;47633;51.494;5.386;2023-08-06T02:09:19;2.72;;;1.40;;
61709;SDS011;47633;51.494;5.386;2023-08-06T02:11:45;3.45;;;1.30;;
61709;SDS011;47633;51.494;5.386;2023-08-06T02:14:10;4.35;;;1.70;;
61709;SDS011;47633;51.494;5.386;2023-08-06T02:16:36;3.83;;;1.42;;
61709;SDS011;47633;51.494;5.386;2023-08-06T02:19:02;3.08;;;1.40;;
61709;SDS011;47633;51.494;5.386;2023-08-06T02:21:28;3.22;;;1.50;;
61709;SDS011;47633;51.494;5.386;2023-08-06T02:23:54;4.70;;;1.55;;
61709;SDS011;47633;51.494;5.386;2023-08-06T02:26:19;4.35;;;1.38;;
61709;SDS011;47633;51.494;5.386;2023-08-06T02:28:45;3.30;;;1.48;;
61709;SDS011;47633;51.494;5.386;2023-08-06T02:31:10;2.83;;;1.30;;
61709;SDS011;47633;51.494;5.386;2023-08-06T02:33:35;2.95;;;1.63;;
61709;SDS011;47633;51.494;5.386;2023-08-06T02:36:04;3.22;;;1.60;;
61709;SDS011;47633;51.494;5.386;2023-08-06T02:38:30;3.28;;;1.52;;
61709;SDS011;47633;51.494;5.386;2023-08-06T02:40:58;2.95;;;1.33;;
61709;SDS011;47633;51.494;5.386;2023-08-06T02:43:24;4.97;;;1.50;;
61709;SDS011;47633;51.494;5.386;2023-08-06T02:45:49;3.53;;;1.52;;
61709;SDS011;47633;51.494;5.386;2023-08-06T02:48:14;3.60;;;1.50;;
61709;SDS011;47633;51.494;5.386;2023-08-06T02:50:40;3.83;;;1.65;;
61709;SDS011;47633;51.494;5.386;2023-08-06T02:53:06;3.03;;;1.30;;
61709;SDS011;47633;51.494;5.386;2023-08-06T02:55:32;4.18;;;1.20;;
61709;SDS011;47633;51.494;5.386;2023-08-06T02:57:59;3.67;;;1.50;;
61709;SDS011;47633;51.494;5.386;2023-08-06T03:00:25;3.05;;;1.33;;
61709;SDS011;47633;51.494;5.386;2023-08-06T03:02:50;3.13;;;1.55;;
61709;SDS011;47633;51.494;5.386;2023-08-06T03:05:16;3.78;;;1.50;;
61709;SDS011;47633;51.494;5.386;2023-08-06T03:07:41;2.70;;;1.27;;
61709;SDS011;47633;51.494;5.386;2023-08-06T03:10:07;2.83;;;1.30;;
61709;SDS011;47633;51.494;5.386;2023-08-06T03:12:32;2.90;;;1.30;;
61709;SDS011;47633;51.494;5.386;2023-08-06T03:14:57;3.08;;;1.30;;
61709;SDS011;47633;51.494;5.386;2023-08-06T03:17:23;3.08;;;1.23;;
61709;SDS011;47633;51.494;5.386;2023-08-06T03:19:48;3.22;;;1.50;;
61709;SDS011;47633;51.494;5.386;2023-08-06T03:22:13;2.85;;;1.33;;
61709;SDS011;47633;51.494;5.386;2023-08-06T03:24:39;2.90;;;1.30;;
61709;SDS011;47633;51.494;5.386;2023-08-06T03:27:04;2.92;;;1.30;;
61709;SDS011;47633;51.494;5.386;2023-08-06T03:29:30;2.72;;;1.20;;
61709;SDS011;47633;51.494;5.386;2023-08-06T03:31:55;3.20;;;1.20;;
61709;SDS011;47633;51.494;5.386;2023-08-06T03:34:20;3.58;;;1.70;;
61709;SDS011;47633;51.494;5.386;2023-08-06T03:36:46;4.22;;;1.40;;
61709;SDS011;47633;51.494;5.386;2023-08-06T03:39:11;2.22;;;1.10;;
61709;SDS011;47633;51.494;5.386;2023-08-06T03:41:36;4.20;;;1.30;;
61709;SDS011;47633;51.494;5.386;2023-08-06T03:44:02;4.55;;;1.63;;
61709;SDS011;47633;51.494;5.386;2023-08-06T03:46:29;2.55;;;1.23;;
61709;SDS011;47633;51.494;5.386;2023-08-06T03:48:54;2.67;;;1.30;;
61709;SDS011;47633;51.494;5.386;2023-08-06T03:51:20;3.28;;;1.40;;
61709;SDS011;47633;51.494;5.386;2023-08-06T03:53:45;3.60;;;1.40;;
61709;SDS011;47633;51.494;5.386;2023-08-06T03:56:10;3.45;;;1.40;;
61709;SDS011;47633;51.494;5.386;2023-08-06T03:58:36;3.15;;;1.30;;
61709;SDS011;47633;51.494;5.386;2023-08-06T04:01:02;2.85;;;1.35;;
61709;SDS011;47633;51.494;5.386;2023-08-06T04:03:28;3.38;;;1.30;;
61709;SDS011;47633;51.494;5.386;2023-08-06T04:05:53;2.97;;;1.30;;
61709;SDS011;47633;51.494;5.386;2023-08-06T04:08:19;2.88;;;1.20;;
61709;SDS011;47633;51.494;5.386;2023-08-06T04:10:45;2.85;;;1.27;;
61709;SDS011;47633;51.494;5.386;2023-08-06T04:13:10;2.47;;;1.40;;
61709;SDS011;47633;51.494;5.386;2023-08-06T04:15:35;4.68;;;1.40;;
61709;SDS011;47633;51.494;5.386;2023-08-06T04:18:00;3.42;;;1.60;;
61709;SDS011;47633;51.494;5.386;2023-08-06T04:20:26;3.25;;;1.65;;
61709;SDS011;47633;51.494;5.386;2023-08-06T04:22:53;2.88;;;1.40;;
61709;SDS011;47633;51.494;5.386;2023-08-06T04:25:19;2.47;;;1.30;;
61709;SDS011;47633;51.494;5.386;2023-08-06T04:27:46;3.00;;;1.40;;
61709;SDS011;47633;51.494;5.386;2023-08-06T04:30:12;3.83;;;1.50;;
61709;SDS011;47633;51.494;5.386;2023-08-06T04:32:38;3.35;;;1.42;;
61709;SDS011;47633;51.494;5.386;2023-08-06T04:35:04;2.58;;;1.30;;
61709;SDS011;47633;51.494;5.386;2023-08-06T04:37:30;4.50;;;1.30;;
61709;SDS011;47633;51.494;5.386;2023-08-06T04:39:55;3.25;;;1.50;;
61709;SDS011;47633;51.494;5.386;2023-08-06T04:42:20;3.53;;;1.23;;
61709;SDS011;47633;51.494;5.386;2023-08-06T04:44:46;2.63;;;1.27;;
61709;SDS011;47633;51.494;5.386;2023-08-06T04:47:11;2.10;;;1.10;;
61709;SDS011;47633;51.494;5.386;2023-08-06T04:49:36;3.42;;;1.30;;
61709;SDS011;47633;51.494;5.386;2023-08-06T04:52:02;2.25;;;1.13;;
61709;SDS011;47633;51.494;5.386;2023-08-06T04:54:27;2.80;;;1.30;;
61709;SDS011;47633;51.494;5.386;2023-08-06T04:56:52;3.20;;;1.50;;
61709;SDS011;47633;51.494;5.386;2023-08-06T04:59:18;3.00;;;1.17;;
61709;SDS011;47633;51.494;5.386;2023-08-06T05:01:43;2.80;;;1.23;;
61709;SDS011;47633;51.494;5.386;2023-08-06T05:04:09;3.03;;;1.40;;
61709;SDS011;47633;51.494;5.386;2023-08-06T05:06:34;3.08;;;1.48;;
61709;SDS011;47633;51.494;5.386;2023-08-06T05:08:59;3.60;;;1.50;;
61709;SDS011;47633;51.494;5.386;2023-08-06T05:11:24;3.60;;;1.50;;
61709;SDS011;47633;51.494;5.386;2023-08-06T05:13:50;4.20;;;1.75;;
61709;SDS011;47633;51.494;5.386;2023-08-06T05:16:15;2.95;;;1.35;;
61709;SDS011;47633;51.494;5.386;2023-08-06T05:18:41;3.65;;;1.40;;
61709;SDS011;47633;51.494;5.386;2023-08-06T05:21:06;4.05;;;1.50;;
61709;SDS011;47633;51.494;5.386;2023-08-06T05:23:32;3.92;;;1.40;;
61709;SDS011;47633;51.494;5.386;2023-08-06T05:25:57;3.08;;;1.30;;
61709;SDS011;47633;51.494;5.386;2023-08-06T05:28:23;3.03;;;1.40;;
61709;SDS011;47633;51.494;5.386;2023-08-06T05:30:48;2.85;;;1.30;;
61709;SDS011;47633;51.494;5.386;2023-08-06T05:33:13;2.80;;;1.40;;
61709;SDS011;47633;51.494;5.386;2023-08-06T05:35:40;2.58;;;1.58;;
61709;SDS011;47633;51.494;5.386;2023-08-06T05:38:07;2.75;;;1.30;;
61709;SDS011;47633;51.494;5.386;2023-08-06T05:40:33;3.05;;;1.30;;
61709;SDS011;47633;51.494;5.386;2023-08-06T05:42:59;3.42;;;1.45;;
61709;SDS011;47633;51.494;5.386;2023-08-06T05:45:24;3.22;;;1.17;;
61709;SDS011;47633;51.494;5.386;2023-08-06T05:47:49;2.95;;;1.40;;
61709;SDS011;47633;51.494;5.386;2023-08-06T05:50:15;3.83;;;1.40;;
61709;SDS011;47633;51.494;5.386;2023-08-06T05:52:40;3.42;;;1.40;;
61709;SDS011;47633;51.494;5.386;2023-08-06T05:55:05;4.25;;;1.30;;
61709;SDS011;47633;51.494;5.386;2023-08-06T05:57:31;2.67;;;1.20;;
61709;SDS011;47633;51.494;5.386;2023-08-06T05:59:56;3.40;;;1.60;;
61709;SDS011;47633;51.494;5.386;2023-08-06T06:02:22;2.65;;;1.40;;
61709;SDS011;47633;51.494;5.386;2023-08-06T06:04:47;3.25;;;1.40;;
61709;SDS011;47633;51.494;5.386;2023-08-06T06:07:13;4.13;;;1.50;;
61709;SDS011;47633;51.494;5.386;2023-08-06T06:09:39;2.75;;;1.35;;
61709;SDS011;47633;51.494;5.386;2023-08-06T06:12:04;3.30;;;1.65;;
61709;SDS011;47633;51.494;5.386;2023-08-06T06:14:30;2.90;;;1.40;;
61709;SDS011;47633;51.494;5.386;2023-08-06T06:16:56;3.88;;;1.60;;
61709;SDS011;47633;51.494;5.386;2023-08-06T06:19:21;3.08;;;1.52;;
61709;SDS011;47633;51.494;5.386;2023-08-06T06:21:46;2.55;;;1.40;;
61709;SDS011;47633;51.494;5.386;2023-08-06T06:24:12;4.32;;;1.50;;
61709;SDS011;47633;51.494;5.386;2023-08-06T06:26:38;3.03;;;1.30;;
61709;SDS011;47633;51.494;5.386;2023-08-06T06:29:03;6.28;;;1.95;;
61709;SDS011;47633;51.494;5.386;2023-08-06T06:31:28;3.05;;;1.35;;
61709;SDS011;47633;51.494;5.386;2023-08-06T06:33:54;2.90;;;1.30;;
61709;SDS011;47633;51.494;5.386;2023-08-06T06:36:19;2.70;;;1.30;;
61709;SDS011;47633;51.494;5.386;2023-08-06T06:38:45;3.47;;;1.40;;
61709;SDS011;47633;51.494;5.386;2023-08-06T06:41:11;3.47;;;1.20;;
61709;SDS011;47633;51.494;5.386;2023-08-06T06:43:36;2.75;;;1.30;;
61709;SDS011;47633;51.494;5.386;2023-08-06T06:46:03;2.80;;;1.40;;
61709;SDS011;47633;51.494;5.386;2023-08-06T06:48:29;1.85;;;0.98;;
61709;SDS011;47633;51.494;5.386;2023-08-06T06:50:58;3.42;;;1.13;;
61709;SDS011;47633;51.494;5.386;2023-08-06T06:53:23;2.75;;;1.05;;
61709;SDS011;47633;51.494;5.386;2023-08-06T06:55:56;4.93;;;1.30;;
61709;SDS011;47633;51.494;5.386;2023-08-06T06:58:26;3.53;;;1.27;;
61709;SDS011;47633;51.494;5.386;2023-08-06T07:00:51;3.65;;;1.30;;
61709;SDS011;47633;51.494;5.386;2023-08-06T07:03:16;2.63;;;1.20;;
61709;SDS011;47633;51.494;5.386;2023-08-06T07:05:43;2.80;;;1.30;;
61709;SDS011;47633;51.494;5.386;2023-08-06T07:08:09;5.05;;;1.60;;
61709;SDS011;47633;51.494;5.386;2023-08-06T07:10:35;4.03;;;1.50;;
61709;SDS011;47633;51.494;5.386;2023-08-06T07:13:00;7.22;;;1.58;;
61709;SDS011;47633;51.494;5.386;2023-08-06T07:15:25;3.47;;;1.58;;
61709;SDS011;47633;51.494;5.386;2023-08-06T07:17:51;6.88;;;1.48;;
61709;SDS011;47633;51.494;5.386;2023-08-06T07:20:16;3.30;;;1.55;;
61709;SDS011;47633;51.494;5.386;2023-08-06T07:22:41;5.70;;;1.70;;
61709;SDS011;47633;51.494;5.386;2023-08-06T07:25:07;3.50;;;1.67;;
61709;SDS011;47633;51.494;5.386;2023-08-06T07:27:32;4.57;;;1.50;;
61709;SDS011;47633;51.494;5.386;2023-08-06T07:29:58;5.18;;;1.80;;
61709;SDS011;47633;51.494;5.386;2023-08-06T07:32:24;3.78;;;1.80;;
61709;SDS011;47633;51.494;5.386;2023-08-06T07:34:49;4.55;;;1.88;;
61709;SDS011;47633;51.494;5.386;2023-08-06T07:37:14;3.92;;;1.90;;
61709;SDS011;47633;51.494;5.386;2023-08-06T07:39:40;4.00;;;1.90;;
61709;SDS011;47633;51.494;5.386;2023-08-06T07:42:07;5.85;;;2.17;;
61709;SDS011;47633;51.494;5.386;2023-08-06T07:44:33;4.70;;;1.77;;
61709;SDS011;47633;51.494;5.386;2023-08-06T07:46:58;3.90;;;2.05;;
61709;SDS011;47633;51.494;5.386;2023-08-06T07:49:23;3.67;;;1.80;;
61709;SDS011;47633;51.494;5.386;2023-08-06T07:51:49;4.22;;;1.67;;
61709;SDS011;47633;51.494;5.386;2023-08-06T07:54:17;5.05;;;2.17;;
61709;SDS011;47633;51.494;5.386;2023-08-06T07:56:42;3.67;;;1.92;;
61709;SDS011;47633;51.494;5.386;2023-08-06T07:59:07;4.32;;;1.90;;
61709;SDS011;47633;51.494;5.386;2023-08-06T08:01:33;4.85;;;2.00;;
61709;SDS011;47633;51.494;5.386;2023-08-06T08:03:58;4.25;;;1.92;;
61709;SDS011;47633;51.494;5.386;2023-08-06T08:06:24;5.47;;;2.22;;
61709;SDS011;47633;51.494;5.386;2023-08-06T08:08:49;5.30;;;1.63;;
61709;SDS011;47633;51.494;5.386;2023-08-06T08:11:15;6.25;;;2.10;;
61709;SDS011;47633;51.494;5.386;2023-08-06T08:13:41;3.88;;;1.90;;
61709;SDS011;47633;51.494;5.386;2023-08-06T08:16:06;7.93;;;2.40;;
61709;SDS011;47633;51.494;5.386;2023-08-06T08:18:32;6.90;;;2.33;;
61709;SDS011;47633;51.494;5.386;2023-08-06T08:20:57;6.38;;;2.28;;
61709;SDS011;47633;51.494;5.386;2023-08-06T08:23:22;6.95;;;1.90;;
61709;SDS011;47633;51.494;5.386;2023-08-06T08:25:48;5.32;;;2.40;;
61709;SDS011;47633;51.494;5.386;2023-08-06T08:28:13;4.70;;;2.20;;
61709;SDS011;47633;51.494;5.386;2023-08-06T08:30:40;6.30;;;2.40;;
61709;SDS011;47633;51.494;5.386;2023-08-06T08:33:06;6.72;;;2.25;;
61709;SDS011;47633;51.494;5.386;2023-08-06T08:35:33;7.55;;;2.28;;
61709;SDS011;47633;51.494;5.386;2023-08-06T08:37:59;5.03;;;2.05;;
61709;SDS011;47633;51.494;5.386;2023-08-06T08:40:26;6.15;;;2.40;;
61709;SDS011;47633;51.494;5.386;2023-08-06T08:42:57;6.25;;;2.10;;
61709;SDS011;47633;51.494;5.386;2023-08-06T08:45:26;4.55;;;2.10;;
61709;SDS011;47633;51.494;5.386;2023-08-06T08:47:54;5.72;;;2.40;;
61709;SDS011;47633;51.494;5.386;2023-08-06T08:50:20;8.13;;;2.38;;
61709;SDS011;47633;51.494;5.386;2023-08-06T08:52:46;9.32;;;2.20;;
61709;SDS011;47633;51.494;5.386;2023-08-06T08:55:14;4.18;;;2.08;;
61709;SDS011;47633;51.494;5.386;2023-08-06T08:57:40;7.00;;;2.10;;
61709;SDS011;47633;51.494;5.386;2023-08-06T09:00:05;4.32;;;2.40;;
61709;SDS011;47633;51.494;5.386;2023-08-06T09:02:32;5.55;;;2.30;;
61709;SDS011;47633;51.494;5.386;2023-08-06T09:04:59;8.98;;;2.63;;
61709;SDS011;47633;51.494;5.386;2023-08-06T09:07:27;5.80;;;2.15;;
61709;SDS011;47633;51.494;5.386;2023-08-06T09:09:55;4.10;;;2.05;;
61709;SDS011;47633;51.494;5.386;2023-08-06T09:12:22;5.82;;;2.42;;
61709;SDS011;47633;51.494;5.386;2023-08-06T09:14:47;6.20;;;2.40;;
61709;SDS011;47633;51.494;5.386;2023-08-06T09:17:12;4.90;;;2.35;;
61709;SDS011;47633;51.494;5.386;2023-08-06T09:19:41;4.60;;;2.28;;
61709;SDS011;47633;51.494;5.386;2023-08-06T09:22:12;7.13;;;2.15;;
61709;SDS011;47633;51.494;5.386;2023-08-06T09:24:39;4.57;;;2.35;;
61709;SDS011;47633;51.494;5.386;2023-08-06T09:27:08;6.13;;;2.10;;
61709;SDS011;47633;51.494;5.386;2023-08-06T09:29:35;6.50;;;2.30;;
61709;SDS011;47633;51.494;5.386;2023-08-06T09:32:05;12.73;;;2.72;;
61709;SDS011;47633;51.494;5.386;2023-08-06T09:34:31;4.68;;;2.33;;
61709;SDS011;47633;51.494;5.386;2023-08-06T09:36:56;6.18;;;2.33;;
61709;SDS011;47633;51.494;5.386;2023-08-06T09:39:26;5.72;;;2.30;;
61709;SDS011;47633;51.494;5.386;2023-08-06T09:41:55;4.90;;;2.40;;
61709;SDS011;47633;51.494;5.386;2023-08-06T09:44:21;4.88;;;2.38;;
61709;SDS011;47633;51.494;5.386;2023-08-06T09:46:50;9.93;;;2.40;;
61709;SDS011;47633;51.494;5.386;2023-08-06T09:49:25;4.13;;;2.25;;
61709;SDS011;47633;51.494;5.386;2023-08-06T09:51:57;6.35;;;2.40;;
61709;SDS011;47633;51.494;5.386;2023-08-06T09:54:25;6.88;;;2.00;;
61709;SDS011;47633;51.494;5.386;2023-08-06T09:56:52;4.82;;;2.17;;
61709;SDS011;47633;51.494;5.386;2023-08-06T09:59:18;3.95;;;2.25;;
61709;SDS011;47633;51.494;5.386;2023-08-06T10:01:44;5.35;;;2.10;;
61709;SDS011;47633;51.494;5.386;2023-08-06T10:04:10;6.05;;;2.28;;
61709;SDS011;47633;51.494;5.386;2023-08-06T10:06:41;4.10;;;2.03;;
61709;SDS011;47633;51.494;5.386;2023-08-06T10:09:10;8.00;;;2.55;;
61709;SDS011;47633;51.494;5.386;2023-08-06T10:11:36;8.43;;;2.70;;
61709;SDS011;47633;51.494;5.386;2023-08-06T10:14:47;6.00;;;2.03;;
61709;SDS011;47633;51.494;5.386;2023-08-06T10:16:58;4.78;;;2.30;;
61709;SDS011;47633;51.494;5.386;2023-08-06T10:19:25;8.02;;;2.38;;
61709;SDS011;47633;51.494;5.386;2023-08-06T10:22:10;7.65;;;2.80;;
61709;SDS011;47633;51.494;5.386;2023-08-06T10:24:47;5.30;;;2.30;;
61709;SDS011;47633;51.494;5.386;2023-08-06T10:27:13;9.48;;;2.08;;
61709;SDS011;47633;51.494;5.386;2023-08-06T10:29:39;8.83;;;2.30;;
61709;SDS011;47633;51.494;5.386;2023-08-06T10:32:04;6.97;;;2.40;;
61709;SDS011;47633;51.494;5.386;2023-08-06T10:37:35;7.22;;;2.28;;
61709;SDS011;47633;51.494;5.386;2023-08-06T10:40:01;5.47;;;2.15;;
61709;SDS011;47633;51.494;5.386;2023-08-06T10:42:27;6.35;;;2.30;;
61709;SDS011;47633;51.494;5.386;2023-08-06T10:47:43;9.30;;;2.42;;
61709;SDS011;47633;51.494;5.386;2023-08-06T10:50:18;6.82;;;2.40;;
61709;SDS011;47633;51.494;5.386;2023-08-06T10:52:43;7.72;;;2.65;;
61709;SDS011;47633;51.494;5.386;2023-08-06T10:55:09;4.97;;;2.13;;
61709;SDS011;47633;51.494;5.386;2023-08-06T10:57:35;6.13;;;2.47;;
61709;SDS011;47633;51.494;5.386;2023-08-06T11:00:00;4.90;;;2.60;;
61709;SDS011;47633;51.494;5.386;2023-08-06T11:02:26;5.72;;;2.08;;
61709;SDS011;47633;51.494;5.386;2023-08-06T11:04:51;3.85;;;1.92;;
61709;SDS011;47633;51.494;5.386;2023-08-06T11:07:17;7.50;;;2.40;;
61709;SDS011;47633;51.494;5.386;2023-08-06T11:09:42;5.45;;;2.40;;
61709;SDS011;47633;51.494;5.386;2023-08-06T11:12:11;4.50;;;2.40;;
61709;SDS011;47633;51.494;5.386;2023-08-06T11:14:36;4.22;;;2.17;;
61709;SDS011;47633;51.494;5.386;2023-08-06T11:17:03;7.68;;;2.42;;
61709;SDS011;47633;51.494;5.386;2023-08-06T11:19:28;5.65;;;2.50;;
61709;SDS011;47633;51.494;5.386;2023-08-06T11:21:54;5.38;;;2.40;;
61709;SDS011;47633;51.494;5.386;2023-08-06T11:24:19;5.50;;;2.38;;
61709;SDS011;47633;51.494;5.386;2023-08-06T11:26:45;8.38;;;3.28;;
61709;SDS011;47633;51.494;5.386;2023-08-06T11:29:10;5.78;;;2.42;;
61709;SDS011;47633;51.494;5.386;2023-08-06T11:31:36;6.85;;;2.92;;
61709;SDS011;47633;51.494;5.386;2023-08-06T11:34:01;6.53;;;2.42;;
61709;SDS011;47633;51.494;5.386;2023-08-06T11:36:31;6.05;;;2.55;;
61709;SDS011;47633;51.494;5.386;2023-08-06T11:39:00;6.97;;;2.78;;
61709;SDS011;47633;51.494;5.386;2023-08-06T11:41:28;5.97;;;2.50;;
61709;SDS011;47633;51.494;5.386;2023-08-06T11:43:54;4.68;;;2.33;;
61709;SDS011;47633;51.494;5.386;2023-08-06T11:46:19;7.88;;;2.70;;
61709;SDS011;47633;51.494;5.386;2023-08-06T11:48:58;5.75;;;2.75;;
61709;SDS011;47633;51.494;5.386;2023-08-06T11:51:24;5.18;;;2.17;;
61709;SDS011;47633;51.494;5.386;2023-08-06T11:53:56;5.75;;;2.50;;
61709;SDS011;47633;51.494;5.386;2023-08-06T11:56:22;4.30;;;2.33;;
61709;SDS011;47633;51.494;5.386;2023-08-06T11:58:48;6.22;;;2.30;;
61709;SDS011;47633;51.494;5.386;2023-08-06T12:01:14;5.00;;;2.33;;
61709;SDS011;47633;51.494;5.386;2023-08-06T12:03:39;5.95;;;2.20;;
61709;SDS011;47633;51.494;5.386;2023-08-06T12:06:05;7.05;;;2.67;;
61709;SDS011;47633;51.494;5.386;2023-08-06T12:08:32;6.70;;;2.40;;
61709;SDS011;47633;51.494;5.386;2023-08-06T12:10:58;5.75;;;2.72;;
61709;SDS011;47633;51.494;5.386;2023-08-06T12:13:24;5.03;;;2.30;;
61709;SDS011;47633;51.494;5.386;2023-08-06T12:15:49;5.43;;;2.13;;
61709;SDS011;47633;51.494;5.386;2023-08-06T12:18:18;5.03;;;2.15;;
61709;SDS011;47633;51.494;5.386;2023-08-06T12:20:44;5.05;;;2.72;;
61709;SDS011;47633;51.494;5.386;2023-08-06T12:23:09;8.02;;;2.50;;
61709;SDS011;47633;51.494;5.386;2023-08-06T12:25:34;5.38;;;2.72;;
61709;SDS011;47633;51.494;5.386;2023-08-06T12:28:00;8.90;;;2.80;;
61709;SDS011;47633;51.494;5.386;2023-08-06T12:30:25;5.85;;;2.42;;
61709;SDS011;47633;51.494;5.386;2023-08-06T12:32:51;6.53;;;2.53;;
61709;SDS011;47633;51.494;5.386;2023-08-06T12:35:16;6.03;;;2.42;;
61709;SDS011;47633;51.494;5.386;2023-08-06T12:37:42;4.15;;;2.20;;
61709;SDS011;47633;51.494;5.386;2023-08-06T12:40:09;5.43;;;2.30;;
61709;SDS011;47633;51.494;5.386;2023-08-06T12:42:35;5.78;;;2.08;;
61709;SDS011;47633;51.494;5.386;2023-08-06T12:45:00;6.15;;;2.38;;
61709;SDS011;47633;51.494;5.386;2023-08-06T12:47:25;5.25;;;2.30;;
61709;SDS011;47633;51.494;5.386;2023-08-06T12:49:51;4.40;;;2.20;;
61709;SDS011;47633;51.494;5.386;2023-08-06T12:52:16;3.77;;;1.90;;
61709;SDS011;47633;51.494;5.386;2023-08-06T12:54:42;6.28;;;2.08;;
61709;SDS011;47633;51.494;5.386;2023-08-06T12:57:08;4.53;;;2.00;;
61709;SDS011;47633;51.494;5.386;2023-08-06T12:59:33;6.35;;;2.30;;
61709;SDS011;47633;51.494;5.386;2023-08-06T13:02:01;5.70;;;1.92;;
61709;SDS011;47633;51.494;5.386;2023-08-06T13:04:27;6.40;;;2.20;;
61709;SDS011;47633;51.494;5.386;2023-08-06T13:06:52;5.18;;;1.85;;
61709;SDS011;47633;51.494;5.386;2023-08-06T13:09:18;5.65;;;2.10;;
61709;SDS011;47633;51.494;5.386;2023-08-06T13:11:44;5.35;;;1.63;;
61709;SDS011;47633;51.494;5.386;2023-08-06T13:14:12;5.18;;;1.95;;
61709;SDS011;47633;51.494;5.386;2023-08-06T13:16:40;5.22;;;1.50;;
61709;SDS011;47633;51.494;5.386;2023-08-06T13:19:06;5.38;;;1.95;;
61709;SDS011;47633;51.494;5.386;2023-08-06T13:23:58;4.95;;;1.70;;
61709;SDS011;47633;51.494;5.386;2023-08-06T13:26:23;5.07;;;1.70;;
61709;SDS011;47633;51.494;5.386;2023-08-06T13:28:48;6.10;;;1.77;;
61709;SDS011;47633;51.494;5.386;2023-08-06T13:31:14;4.07;;;1.80;;
61709;SDS011;47633;51.494;5.386;2023-08-06T13:33:39;5.57;;;1.60;;
61709;SDS011;47633;51.494;5.386;2023-08-06T13:36:05;5.53;;;1.65;;
61709;SDS011;47633;51.494;5.386;2023-08-06T13:38:30;7.82;;;2.08;;
61709;SDS011;47633;51.494;5.386;2023-08-06T13:40:55;3.63;;;1.90;;
61709;SDS011;47633;51.494;5.386;2023-08-06T13:43:21;6.22;;;1.70;;
61709;SDS011;47633;51.494;5.386;2023-08-06T13:45:46;5.15;;;1.80;;
61709;SDS011;47633;51.494;5.386;2023-08-06T13:48:11;3.88;;;1.50;;
61709;SDS011;47633;51.494;5.386;2023-08-06T13:50:36;4.17;;;1.70;;
61709;SDS011;47633;51.494;5.386;2023-08-06T13:53:04;4.22;;;1.88;;
61709;SDS011;47633;51.494;5.386;2023-08-06T13:55:30;4.90;;;1.70;;
61709;SDS011;47633;51.494;5.386;2023-08-06T13:57:55;3.83;;;1.55;;
61709;SDS011;47633;51.494;5.386;2023-08-06T14:00:20;6.20;;;1.77;;
61709;SDS011;47633;51.494;5.386;2023-08-06T14:02:46;4.18;;;1.60;;
61709;SDS011;47633;51.494;5.386;2023-08-06T14:05:11;4.45;;;1.85;;
61709;SDS011;47633;51.494;5.386;2023-08-06T14:07:36;3.47;;;1.52;;
61709;SDS011;47633;51.494;5.386;2023-08-06T14:10:02;4.25;;;1.77;;
61709;SDS011;47633;51.494;5.386;2023-08-06T14:12:28;5.60;;;1.58;;
61709;SDS011;47633;51.494;5.386;2023-08-06T14:14:53;5.13;;;1.52;;
61709;SDS011;47633;51.494;5.386;2023-08-06T14:17:18;6.85;;;1.73;;
61709;SDS011;47633;51.494;5.386;2023-08-06T14:19:44;6.10;;;1.50;;
61709;SDS011;47633;51.494;5.386;2023-08-06T14:22:09;3.28;;;1.70;;
61709;SDS011;47633;51.494;5.386;2023-08-06T14:24:34;3.60;;;1.60;;
61709;SDS011;47633;51.494;5.386;2023-08-06T14:27:00;5.95;;;1.60;;
61709;SDS011;47633;51.494;5.386;2023-08-06T14:29:25;4.47;;;1.60;;
61709;SDS011;47633;51.494;5.386;2023-08-06T14:31:50;5.70;;;1.42;;
61709;SDS011;47633;51.494;5.386;2023-08-06T14:34:16;3.35;;;1.27;;
61709;SDS011;47633;51.494;5.386;2023-08-06T14:36:42;5.00;;;1.40;;
61709;SDS011;47633;51.494;5.386;2023-08-06T14:39:07;2.97;;;1.27;;
61709;SDS011;47633;51.494;5.386;2023-08-06T14:41:32;5.68;;;1.50;;
61709;SDS011;47633;51.494;5.386;2023-08-06T14:43:58;3.72;;;1.30;;
61709;SDS011;47633;51.494;5.386;2023-08-06T14:46:23;5.03;;;1.40;;
61709;SDS011;47633;51.494;5.386;2023-08-06T14:48:48;4.38;;;1.55;;
61709;SDS011;47633;51.494;5.386;2023-08-06T14:51:14;6.85;;;1.52;;
61709;SDS011;47633;51.494;5.386;2023-08-06T14:53:40;3.03;;;1.27;;
61709;SDS011;47633;51.494;5.386;2023-08-06T14:56:05;5.43;;;1.42;;
61709;SDS011;47633;51.494;5.386;2023-08-06T14:58:30;3.70;;;1.30;;
61709;SDS011;47633;51.494;5.386;2023-08-06T15:00:56;5.10;;;1.20;;
61709;SDS011;47633;51.494;5.386;2023-08-06T15:03:21;7.73;;;1.33;;